createdAt,value
2023-05-27T00:00:38.588Z,19.30
2023-05-27T00:03:27.586Z,19.17
2023-05-27T00:05:57.505Z,19.11
2023-05-27T00:08:27.350Z,19.04
2023-05-27T00:10:56.856Z,19.03
2023-05-27T00:13:25.990Z,19.00
2023-05-27T00:15:55.230Z,18.93
2023-05-27T00:18:24.736Z,18.94
2023-05-27T00:20:54.022Z,18.98
2023-05-27T00:23:23.936Z,19.00
2023-05-27T00:25:53.087Z,19.00
2023-05-27T00:28:22.374Z,19.04
2023-05-27T00:30:52.037Z,18.99
2023-05-27T00:33:21.159Z,18.94
2023-05-27T00:35:50.738Z,18.82
2023-05-27T00:38:20.069Z,18.72
2023-05-27T00:40:52.812Z,18.62
2023-05-27T00:43:21.763Z,18.52
2023-05-27T00:45:51.322Z,18.51
2023-05-27T00:48:21.818Z,18.51
2023-05-27T00:50:51.079Z,18.47
2023-05-27T00:53:21.869Z,18.48
2023-05-27T00:55:56.028Z,18.48
2023-05-27T00:58:25.949Z,18.52
2023-05-27T01:00:55.870Z,18.58
2023-05-27T01:03:25.477Z,18.61
2023-05-27T01:06:02.242Z,18.57
2023-05-27T01:09:07.443Z,18.42
2023-05-27T01:11:43.750Z,18.28
2023-05-27T01:14:15.425Z,18.22
2023-05-27T01:16:48.720Z,18.16
2023-05-27T01:19:32.692Z,18.14
2023-05-27T01:22:03.280Z,18.10
2023-05-27T01:24:33.045Z,18.11
2023-05-27T01:27:04.625Z,18.15
2023-05-27T01:29:34.002Z,18.11
2023-05-27T01:32:03.064Z,18.05
2023-05-27T01:34:42.341Z,18.05
2023-05-27T01:37:15.420Z,18.03
2023-05-27T01:39:45.725Z,18.00
2023-05-27T01:42:16.533Z,18.00
2023-05-27T01:44:45.628Z,17.97
2023-05-27T01:47:14.445Z,17.99
2023-05-27T01:49:43.533Z,18.01
2023-05-27T01:52:12.425Z,18.01
2023-05-27T01:54:42.310Z,17.98
2023-05-27T01:57:11.300Z,17.91
2023-05-27T01:59:40.902Z,17.84
2023-05-27T02:02:09.932Z,17.83
2023-05-27T02:04:38.867Z,17.80
2023-05-27T02:07:07.908Z,17.71
2023-05-27T02:09:37.984Z,17.58
2023-05-27T02:12:07.876Z,17.53
2023-05-27T02:14:40.037Z,17.52
2023-05-27T02:17:09.595Z,17.48
2023-05-27T02:19:38.645Z,17.41
2023-05-27T02:22:07.677Z,17.32
2023-05-27T02:24:36.809Z,17.26
2023-05-27T02:27:07.330Z,17.22
2023-05-27T02:29:35.957Z,17.20
2023-05-27T02:32:05.284Z,17.12
2023-05-27T02:34:38.923Z,17.08
2023-05-27T02:37:08.360Z,17.10
2023-05-27T02:39:37.342Z,17.17
2023-05-27T02:42:07.155Z,17.26
2023-05-27T02:44:36.150Z,17.28
2023-05-27T02:47:05.753Z,17.26
2023-05-27T02:49:34.862Z,17.27
2023-05-27T02:52:04.386Z,17.32
2023-05-27T02:54:33.669Z,17.33
2023-05-27T02:57:03.155Z,17.27
2023-05-27T02:59:32.108Z,17.12
2023-05-27T03:02:00.887Z,16.97
2023-05-27T03:04:30.281Z,16.91
2023-05-27T03:06:59.614Z,16.90
2023-05-27T03:09:29.206Z,16.88
2023-05-27T03:11:58.585Z,16.90
2023-05-27T03:14:27.751Z,16.96
2023-05-27T03:16:57.214Z,17.02
2023-05-27T03:19:26.884Z,17.04
2023-05-27T03:21:57.710Z,17.04
2023-05-27T03:24:27.030Z,17.07
2023-05-27T03:26:56.098Z,17.13
2023-05-27T03:29:25.947Z,17.16
2023-05-27T03:31:55.373Z,17.13
2023-05-27T03:34:24.975Z,17.10
2023-05-27T03:36:53.907Z,17.09
2023-05-27T03:39:22.944Z,17.11
2023-05-27T03:41:51.870Z,17.10
2023-05-27T03:44:21.206Z,17.08
2023-05-27T03:46:50.302Z,17.03
2023-05-27T03:49:19.202Z,17.00
2023-05-27T03:51:48.755Z,17.00
2023-05-27T03:54:18.146Z,16.96
2023-05-27T03:56:46.956Z,16.86
2023-05-27T03:59:16.555Z,16.82
2023-05-27T04:01:46.890Z,16.85
2023-05-27T04:04:16.847Z,16.84
2023-05-27T04:06:45.996Z,16.79
2023-05-27T04:09:14.959Z,16.75
2023-05-27T04:11:44.279Z,16.81
2023-05-27T04:14:13.163Z,16.83
2023-05-27T04:16:43.099Z,16.82
2023-05-27T04:19:12.322Z,16.80
2023-05-27T04:21:41.962Z,16.78
2023-05-27T04:24:11.231Z,16.81
2023-05-27T04:26:42.484Z,16.83
2023-05-27T04:29:13.584Z,16.83
2023-05-27T04:31:43.871Z,16.80
2023-05-27T04:34:12.987Z,16.84
2023-05-27T04:36:42.694Z,16.95
2023-05-27T04:39:13.168Z,17.08
2023-05-27T04:41:42.888Z,17.20
2023-05-27T04:44:11.989Z,17.29
2023-05-27T04:46:42.303Z,17.42
2023-05-27T04:49:11.864Z,17.57
2023-05-27T04:51:41.455Z,17.66
2023-05-27T04:54:10.542Z,17.71
2023-05-27T04:56:40.295Z,17.74
2023-05-27T04:59:09.799Z,17.83
2023-05-27T05:02:00.930Z,17.98
2023-05-27T05:04:30.622Z,18.14
2023-05-27T05:06:59.725Z,18.30
2023-05-27T05:09:28.954Z,18.35
2023-05-27T05:11:58.194Z,18.41
2023-05-27T05:14:27.501Z,18.46
2023-05-27T05:16:57.464Z,18.53
2023-05-27T05:19:27.276Z,18.58
2023-05-27T05:21:56.828Z,18.71
2023-05-27T05:24:26.192Z,18.91
2023-05-27T05:26:55.285Z,19.11
2023-05-27T05:29:24.970Z,19.14
2023-05-27T05:31:54.924Z,19.24
2023-05-27T05:34:25.002Z,19.37
2023-05-27T05:36:54.341Z,19.52
2023-05-27T05:39:24.206Z,19.70
2023-05-27T05:41:53.696Z,19.87
2023-05-27T05:44:25.372Z,20.05
2023-05-27T05:46:55.044Z,20.21
2023-05-27T05:49:24.477Z,20.36
2023-05-27T05:51:53.835Z,20.48
2023-05-27T05:54:24.008Z,20.65
2023-05-27T05:56:54.223Z,20.76
2023-05-27T05:59:24.340Z,20.86
2023-05-27T06:01:54.423Z,21.06
2023-05-27T06:04:24.207Z,21.27
2023-05-27T06:06:54.371Z,21.45
2023-05-27T06:09:26.614Z,21.63
2023-05-27T06:11:55.997Z,21.80
2023-05-27T06:14:25.907Z,21.97
2023-05-27T06:16:55.334Z,22.16
2023-05-27T06:19:24.432Z,22.29
2023-05-27T06:21:53.657Z,22.41
2023-05-27T06:24:23.299Z,22.55
2023-05-27T06:26:52.443Z,22.73
2023-05-27T06:29:21.702Z,22.87
2023-05-27T06:31:51.156Z,22.96
2023-05-27T06:34:20.423Z,23.03
2023-05-27T06:36:50.564Z,23.06
2023-05-27T06:39:20.165Z,23.08
2023-05-27T06:41:49.220Z,23.15
2023-05-27T06:44:18.496Z,23.29
2023-05-27T06:46:47.637Z,23.37
2023-05-27T06:49:16.671Z,23.45
2023-05-27T06:51:45.906Z,23.60
2023-05-27T06:54:15.212Z,23.64
2023-05-27T06:56:44.346Z,23.72
2023-05-27T06:59:13.697Z,23.88
2023-05-27T07:01:43.093Z,24.05
2023-05-27T07:04:12.427Z,24.21
2023-05-27T07:06:41.788Z,24.34
2023-05-27T07:09:12.675Z,24.42
2023-05-27T07:11:42.383Z,24.59
2023-05-27T07:14:11.758Z,24.85
2023-05-27T07:16:41.078Z,25.13
2023-05-27T07:19:10.071Z,25.53
2023-05-27T07:21:39.373Z,25.88
2023-05-27T07:24:08.656Z,26.44
2023-05-27T07:26:38.018Z,26.88
2023-05-27T07:29:07.374Z,27.23
2023-05-27T07:31:36.482Z,27.55
2023-05-27T07:34:05.678Z,28.05
2023-05-27T07:36:34.906Z,28.44
2023-05-27T07:39:04.389Z,28.70
2023-05-27T07:41:35.204Z,29.11
2023-05-27T07:44:04.220Z,29.46
2023-05-27T07:46:33.944Z,29.78
2023-05-27T07:49:03.535Z,30.12
2023-05-27T07:51:33.458Z,30.53
2023-05-27T07:54:02.518Z,30.63
2023-05-27T07:56:31.743Z,31.06
2023-05-27T07:59:01.256Z,31.43
2023-05-27T08:01:34.085Z,31.73
2023-05-27T08:04:16.273Z,31.96
2023-05-27T08:06:53.403Z,32.00
2023-05-27T08:09:23.233Z,32.28
2023-05-27T08:11:52.456Z,32.44
2023-05-27T08:14:23.562Z,32.73
2023-05-27T08:16:53.298Z,32.94
2023-05-27T08:19:23.240Z,33.17
2023-05-27T08:21:52.752Z,33.22
2023-05-27T08:24:23.347Z,33.34
2023-05-27T08:26:52.513Z,33.50
2023-05-27T08:29:21.606Z,33.89
2023-05-27T08:31:53.440Z,34.12
2023-05-27T08:34:23.247Z,34.25
2023-05-27T08:36:52.340Z,34.57
2023-05-27T08:39:22.010Z,34.85
2023-05-27T08:41:51.268Z,34.98
2023-05-27T08:44:23.189Z,34.99
2023-05-27T08:46:52.871Z,34.97
2023-05-27T08:49:22.369Z,35.13
2023-05-27T08:51:54.610Z,35.36
2023-05-27T08:54:24.251Z,35.44
2023-05-27T08:56:57.423Z,35.34
2023-05-27T08:59:26.942Z,35.26
2023-05-27T09:01:58.114Z,35.37
2023-05-27T09:04:28.299Z,35.32
2023-05-27T09:06:57.934Z,35.24
2023-05-27T09:09:28.605Z,35.21
2023-05-27T09:12:02.266Z,35.55
2023-05-27T09:14:31.950Z,36.04
2023-05-27T09:17:08.526Z,36.26
2023-05-27T09:19:38.026Z,36.51
2023-05-27T09:22:07.638Z,36.81
2023-05-27T09:24:37.418Z,36.91
2023-05-27T09:27:06.846Z,36.57
2023-05-27T09:29:42.364Z,36.68
2023-05-27T09:32:12.019Z,36.74
2023-05-27T09:34:42.988Z,36.54
2023-05-27T09:37:19.086Z,36.50
2023-05-27T09:39:50.620Z,36.61
2023-05-27T09:42:22.547Z,36.95
2023-05-27T09:44:52.037Z,37.27
2023-05-27T09:47:24.515Z,37.47
2023-05-27T09:49:55.715Z,37.25
2023-05-27T09:52:26.382Z,37.23
2023-05-27T09:54:58.880Z,37.47
2023-05-27T09:57:29.252Z,37.59
2023-05-27T10:00:02.653Z,37.87
2023-05-27T10:02:34.781Z,37.88
2023-05-27T10:05:09.677Z,37.90
2023-05-27T10:07:49.703Z,37.97
2023-05-27T10:10:30.855Z,38.05
2023-05-27T10:13:01.715Z,38.17
2023-05-27T10:15:33.083Z,38.05
2023-05-27T10:18:07.785Z,38.27
2023-05-27T10:20:39.681Z,38.28
2023-05-27T10:23:27.104Z,38.08
2023-05-27T10:26:09.984Z,37.85
2023-05-27T10:28:42.750Z,37.94
2023-05-27T10:31:16.592Z,37.69
2023-05-27T10:33:49.054Z,37.46
2023-05-27T10:36:23.862Z,37.68
2023-05-27T10:39:05.879Z,37.80
2023-05-27T10:41:45.517Z,37.77
2023-05-27T10:44:15.414Z,37.77
2023-05-27T10:46:46.014Z,38.17
2023-05-27T10:49:17.151Z,38.62
2023-05-27T10:51:50.962Z,39.04
2023-05-27T10:54:29.048Z,38.98
2023-05-27T10:57:00.857Z,39.00
2023-05-27T10:59:47.302Z,39.17
2023-05-27T11:02:18.376Z,39.27
2023-05-27T11:04:50.998Z,39.39
2023-05-27T11:07:22.328Z,39.00
2023-05-27T11:09:58.134Z,39.12
2023-05-27T11:12:29.312Z,39.14
2023-05-27T11:14:59.889Z,39.27
2023-05-27T11:17:30.323Z,39.44
2023-05-27T11:20:00.855Z,39.57
2023-05-27T11:22:33.101Z,39.58
2023-05-27T11:25:05.536Z,39.53
2023-05-27T11:27:37.350Z,39.67
2023-05-27T11:30:14.789Z,39.56
2023-05-27T11:32:48.814Z,39.68
2023-05-27T11:35:20.357Z,39.73
2023-05-27T11:37:53.953Z,39.52
2023-05-27T11:40:23.537Z,39.41
2023-05-27T11:42:54.509Z,39.44
2023-05-27T11:45:25.232Z,39.30
2023-05-27T11:47:56.283Z,39.64
2023-05-27T11:50:29.053Z,39.92
2023-05-27T11:53:00.021Z,39.83
2023-05-27T11:55:31.769Z,39.83
2023-05-27T11:58:01.089Z,39.96
2023-05-27T12:00:30.931Z,40.03
2023-05-27T12:03:00.892Z,39.97
2023-05-27T12:05:34.753Z,40.08
2023-05-27T12:08:05.140Z,39.86
2023-05-27T12:10:34.156Z,39.91
2023-05-27T12:13:07.825Z,40.23
2023-05-27T12:15:37.223Z,40.12
2023-05-27T12:18:08.122Z,39.70
2023-05-27T12:20:37.862Z,39.34
2023-05-27T12:23:08.059Z,39.49
2023-05-27T12:25:38.314Z,39.46
2023-05-27T12:28:11.985Z,39.47
2023-05-27T12:30:42.585Z,39.57
2023-05-27T12:33:13.074Z,39.72
2023-05-27T12:35:42.684Z,39.63
2023-05-27T12:38:12.486Z,39.50
2023-05-27T12:40:41.781Z,39.67
2023-05-27T12:43:11.005Z,39.69
2023-05-27T12:45:40.556Z,39.57
2023-05-27T12:48:09.807Z,39.89
2023-05-27T12:50:40.034Z,40.06
2023-05-27T12:53:11.351Z,40.00
2023-05-27T12:55:40.935Z,39.75
2023-05-27T12:58:10.663Z,39.46
2023-05-27T13:00:40.903Z,39.39
2023-05-27T13:03:12.321Z,39.84
2023-05-27T13:05:42.053Z,39.82
2023-05-27T13:08:11.622Z,39.63
2023-05-27T13:10:42.701Z,39.24
2023-05-27T13:13:12.675Z,38.92
2023-05-27T13:15:43.464Z,38.78
2023-05-27T13:18:13.495Z,38.87
2023-05-27T13:20:42.954Z,39.14
2023-05-27T13:23:12.792Z,39.29
2023-05-27T13:25:41.644Z,39.07
2023-05-27T13:28:11.339Z,39.08
2023-05-27T13:30:42.163Z,38.76
2023-05-27T13:33:11.512Z,38.45
2023-05-27T13:35:40.754Z,37.96
2023-05-27T13:38:14.144Z,37.83
2023-05-27T13:40:43.504Z,37.50
2023-05-27T13:43:12.786Z,37.28
2023-05-27T13:45:42.059Z,37.30
2023-05-27T13:48:11.429Z,37.44
2023-05-27T13:50:40.480Z,37.67
2023-05-27T13:53:09.712Z,37.73
2023-05-27T13:55:39.122Z,37.79
2023-05-27T13:58:09.046Z,37.58
2023-05-27T14:00:38.114Z,37.62
2023-05-27T14:03:07.201Z,37.62
2023-05-27T14:05:37.544Z,37.40
2023-05-27T14:08:06.978Z,37.26
2023-05-27T14:10:36.710Z,37.14
2023-05-27T14:13:06.614Z,36.92
2023-05-27T14:15:36.812Z,36.89
2023-05-27T14:18:07.468Z,36.81
2023-05-27T14:20:37.366Z,36.81
2023-05-27T14:23:11.886Z,36.87
2023-05-27T14:25:41.964Z,36.42
2023-05-27T14:28:12.488Z,36.22
2023-05-27T14:30:42.142Z,36.01
2023-05-27T14:33:11.699Z,35.86
2023-05-27T14:35:42.528Z,35.82
2023-05-27T14:38:14.681Z,35.32
2023-05-27T14:40:45.469Z,34.98
2023-05-27T14:43:15.173Z,34.60
2023-05-27T14:45:44.483Z,34.32
2023-05-27T14:48:13.889Z,34.27
2023-05-27T14:50:43.825Z,34.06
2023-05-27T14:53:13.617Z,34.09
2023-05-27T14:55:42.746Z,34.08
2023-05-27T14:58:12.246Z,33.90
2023-05-27T15:00:43.310Z,33.77
2023-05-27T15:03:12.918Z,33.62
2023-05-27T15:05:42.982Z,33.47
2023-05-27T15:08:17.076Z,33.32
2023-05-27T15:10:47.326Z,33.18
2023-05-27T15:13:16.770Z,33.23
2023-05-27T15:15:46.977Z,33.13
2023-05-27T15:18:16.503Z,33.04
2023-05-27T15:20:46.390Z,32.97
2023-05-27T15:23:15.672Z,32.87
2023-05-27T15:25:45.247Z,32.67
2023-05-27T15:28:14.679Z,32.45
2023-05-27T15:30:44.229Z,32.25
2023-05-27T15:33:14.435Z,32.10
2023-05-27T15:35:45.200Z,31.95
2023-05-27T15:38:14.898Z,31.90
2023-05-27T15:40:46.040Z,31.89
2023-05-27T15:43:17.075Z,31.88
2023-05-27T15:46:02.828Z,31.77
2023-05-27T15:48:33.978Z,31.86
2023-05-27T15:51:03.673Z,31.88
2023-05-27T15:53:34.341Z,31.83
2023-05-27T15:56:04.203Z,31.80
2023-05-27T15:58:33.899Z,31.74
2023-05-27T16:01:03.987Z,31.59
2023-05-27T16:03:33.599Z,31.31
2023-05-27T16:06:07.860Z,31.25
2023-05-27T16:08:39.650Z,31.14
2023-05-27T16:11:08.986Z,30.87
2023-05-27T16:13:39.483Z,30.77
2023-05-27T16:16:09.613Z,30.68
2023-05-27T16:18:39.742Z,30.64
2023-05-27T16:21:10.060Z,30.65
2023-05-27T16:23:39.953Z,30.64
2023-05-27T16:26:09.545Z,30.60
2023-05-27T16:28:40.283Z,30.59
2023-05-27T16:31:09.601Z,30.54
2023-05-27T16:33:39.309Z,30.55
2023-05-27T16:36:09.199Z,30.59
2023-05-27T16:38:38.495Z,30.53
2023-05-27T16:41:07.981Z,30.39
2023-05-27T16:43:37.211Z,30.26
2023-05-27T16:46:06.662Z,30.18
2023-05-27T16:48:35.581Z,30.12
2023-05-27T16:51:05.293Z,30.10
2023-05-27T16:53:34.995Z,29.77
2023-05-27T16:56:04.894Z,29.62
2023-05-27T16:58:34.429Z,29.48
2023-05-27T17:01:03.633Z,29.55
2023-05-27T17:03:33.105Z,29.51
2023-05-27T17:06:03.326Z,29.43
2023-05-27T17:08:35.030Z,29.33
2023-05-27T17:11:04.414Z,29.28
2023-05-27T17:13:34.266Z,29.24
2023-05-27T17:16:03.634Z,29.19
2023-05-27T17:18:34.254Z,29.11
2023-05-27T17:21:04.745Z,29.07
2023-05-27T17:23:34.212Z,29.00
2023-05-27T17:26:04.094Z,28.95
2023-05-27T17:28:33.885Z,28.90
2023-05-27T17:31:03.324Z,28.79
2023-05-27T17:33:33.740Z,28.71
2023-05-27T17:36:03.995Z,28.57
2023-05-27T17:38:33.977Z,28.49
2023-05-27T17:41:05.034Z,28.33
2023-05-27T17:43:35.072Z,28.25
2023-05-27T17:46:04.904Z,28.17
2023-05-27T17:48:34.674Z,28.10
2023-05-27T17:51:04.021Z,28.05
2023-05-27T17:53:37.001Z,27.99
2023-05-27T17:56:08.108Z,27.82
2023-05-27T17:58:37.846Z,27.67
2023-05-27T18:01:07.360Z,27.52
2023-05-27T18:03:37.084Z,27.27
2023-05-27T18:06:09.315Z,27.03
2023-05-27T18:08:38.788Z,26.83
2023-05-27T18:11:08.648Z,26.59
2023-05-27T18:13:38.541Z,26.37
2023-05-27T18:16:07.457Z,26.20
2023-05-27T18:18:36.658Z,26.02
2023-05-27T18:21:06.626Z,25.82
2023-05-27T18:23:36.174Z,25.61
2023-05-27T18:26:05.274Z,25.45
2023-05-27T18:28:34.712Z,25.31
2023-05-27T18:31:04.312Z,25.19
2023-05-27T18:33:33.747Z,25.12
2023-05-27T18:36:03.001Z,25.08
2023-05-27T18:38:32.675Z,25.08
2023-05-27T18:41:02.207Z,25.08
2023-05-27T18:43:31.805Z,25.06
2023-05-27T18:46:01.200Z,24.98
2023-05-27T18:48:32.436Z,24.96
2023-05-27T18:51:03.133Z,24.89
2023-05-27T18:53:32.594Z,24.83
2023-05-27T18:56:01.965Z,24.73
2023-05-27T18:58:31.874Z,24.59
2023-05-27T19:01:01.747Z,24.52
2023-05-27T19:03:31.642Z,24.51
2023-05-27T19:06:01.332Z,24.50
2023-05-27T19:08:30.755Z,24.47
2023-05-27T19:11:00.449Z,24.23
2023-05-27T19:13:30.046Z,24.04
2023-05-27T19:15:59.706Z,23.95
2023-05-27T19:18:29.457Z,23.86
2023-05-27T19:20:59.604Z,23.65
2023-05-27T19:23:29.488Z,23.42
2023-05-27T19:25:59.143Z,23.34
2023-05-27T19:28:29.071Z,23.25
2023-05-27T19:30:58.526Z,23.17
2023-05-27T19:33:27.815Z,23.06
2023-05-27T19:35:58.765Z,22.95
2023-05-27T19:38:27.876Z,22.81
2023-05-27T19:40:58.526Z,22.70
2023-05-27T19:43:27.994Z,22.66
2023-05-27T19:45:57.501Z,22.64
2023-05-27T19:48:27.013Z,22.64
2023-05-27T19:50:57.730Z,22.62
2023-05-27T19:53:31.678Z,22.59
2023-05-27T19:56:03.901Z,22.52
2023-05-27T19:58:34.992Z,22.48
2023-05-27T20:01:05.028Z,22.43
2023-05-27T20:03:34.196Z,22.39
2023-05-27T20:06:03.778Z,22.34
2023-05-27T20:08:32.886Z,22.29
2023-05-27T20:11:02.764Z,22.23
2023-05-27T20:13:32.367Z,22.20
2023-05-27T20:16:03.066Z,22.14
2023-05-27T20:18:32.618Z,22.04
2023-05-27T20:21:03.132Z,21.96
2023-05-27T20:23:32.669Z,21.89
2023-05-27T20:26:02.422Z,21.85
2023-05-27T20:28:32.492Z,21.70
2023-05-27T20:31:02.283Z,21.60
2023-05-27T20:33:32.156Z,21.50
2023-05-27T20:36:01.321Z,21.43
2023-05-27T20:38:33.349Z,21.37
2023-05-27T20:41:05.938Z,21.27
2023-05-27T20:43:37.645Z,21.21
2023-05-27T20:46:07.734Z,21.18
2023-05-27T20:48:37.093Z,21.16
2023-05-27T20:51:07.638Z,21.13
2023-05-27T20:53:37.652Z,21.13
2023-05-27T20:56:07.400Z,21.06
2023-05-27T20:58:36.668Z,20.99
2023-05-27T21:01:06.315Z,20.88
2023-05-27T21:03:35.655Z,20.76
2023-05-27T21:06:07.696Z,20.59
2023-05-27T21:08:37.086Z,20.47
2023-05-27T21:11:06.431Z,20.45
2023-05-27T21:13:35.760Z,20.38
2023-05-27T21:16:05.196Z,20.25
2023-05-27T21:18:36.014Z,20.12
2023-05-27T21:21:07.489Z,19.97
2023-05-27T21:23:37.122Z,19.91
2023-05-27T21:26:06.843Z,19.88
2023-05-27T21:28:36.135Z,19.88
2023-05-27T21:31:06.058Z,19.88
2023-05-27T21:33:35.157Z,19.91
2023-05-27T21:36:04.425Z,19.94
2023-05-27T21:38:34.935Z,19.89
2023-05-27T21:41:03.961Z,19.86
2023-05-27T21:43:33.364Z,19.78
2023-05-27T21:46:03.493Z,19.65
2023-05-27T21:48:33.425Z,19.46
2023-05-27T21:51:03.069Z,19.31
2023-05-27T21:53:32.547Z,19.22
2023-05-27T21:56:01.661Z,19.14
2023-05-27T21:58:30.860Z,19.11
2023-05-27T22:01:00.247Z,19.10
2023-05-27T22:03:29.861Z,19.04
2023-05-27T22:06:00.309Z,18.99
2023-05-27T22:08:31.175Z,18.98
2023-05-27T22:11:00.973Z,18.97
2023-05-27T22:13:30.347Z,18.96
2023-05-27T22:16:01.770Z,18.93
2023-05-27T22:18:31.678Z,18.96
2023-05-27T22:21:00.975Z,19.01
2023-05-27T22:23:30.473Z,18.99
2023-05-27T22:25:59.508Z,18.93
2023-05-27T22:28:29.033Z,18.92
2023-05-27T22:30:58.391Z,18.90
2023-05-27T22:33:30.165Z,18.86
2023-05-27T22:35:59.623Z,18.77
2023-05-27T22:38:29.132Z,18.67
2023-05-27T22:40:58.462Z,18.60
2023-05-27T22:43:27.444Z,18.55
2023-05-27T22:45:56.580Z,18.52
2023-05-27T22:48:26.369Z,18.51
2023-05-27T22:50:56.752Z,18.50
2023-05-27T22:53:25.877Z,18.51
2023-05-27T22:55:55.846Z,18.52
2023-05-27T22:58:25.407Z,18.54
2023-05-27T23:00:54.912Z,18.50
2023-05-27T23:03:24.144Z,18.48
2023-05-27T23:05:53.415Z,18.36
2023-05-27T23:08:23.061Z,18.22
2023-05-27T23:10:53.032Z,18.14
2023-05-27T23:13:22.310Z,18.11
2023-05-27T23:15:54.011Z,18.08
2023-05-27T23:18:23.522Z,18.06
2023-05-27T23:20:52.815Z,18.05
2023-05-27T23:23:21.774Z,18.06
2023-05-27T23:25:52.875Z,18.02
2023-05-27T23:28:21.965Z,18.01
2023-05-27T23:30:50.985Z,17.97
2023-05-27T23:33:21.242Z,17.92
2023-05-27T23:35:50.814Z,17.90
2023-05-27T23:38:20.973Z,17.87
2023-05-27T23:40:52.568Z,17.86
2023-05-27T23:43:22.189Z,17.83
2023-05-27T23:45:52.496Z,17.74
2023-05-27T23:48:22.491Z,17.62
2023-05-27T23:50:52.648Z,17.56
2023-05-27T23:53:21.910Z,17.56
2023-05-27T23:55:54.462Z,17.64
2023-05-27T23:58:23.281Z,17.73
